createdAt,value
2019-01-31T00:01:36.177Z,44.67
2019-01-31T00:07:10.249Z,47.03
2019-01-31T00:12:51.415Z,50.83
2019-01-31T00:18:19.818Z,52.83
2019-01-31T00:24:22.426Z,52.33
2019-01-31T00:29:59.013Z,50.57
2019-01-31T00:35:29.870Z,46.40
2019-01-31T00:41:03.184Z,46.23
2019-01-31T00:46:45.409Z,50.23
2019-01-31T00:52:43.556Z,45.13
2019-01-31T00:58:09.247Z,45.67
2019-01-31T01:03:44.407Z,44.30
2019-01-31T01:09:07.641Z,43.13
2019-01-31T01:14:51.422Z,46.27
2019-01-31T01:20:33.888Z,47.20
2019-01-31T01:26:21.995Z,49.40
2019-01-31T01:32:16.711Z,50.50
2019-01-31T01:38:02.647Z,50.43
2019-01-31T01:43:20.353Z,53.23
2019-01-31T01:48:34.287Z,52.53
2019-01-31T01:54:03.685Z,52.90
2019-01-31T01:59:48.290Z,54.20
2019-01-31T02:05:30.209Z,54.37
2019-01-31T02:11:08.662Z,52.63
2019-01-31T02:16:57.404Z,55.57
2019-01-31T02:22:57.481Z,60.37
2019-01-31T02:28:28.014Z,58.70
2019-01-31T02:34:00.640Z,56.43
2019-01-31T02:39:23.285Z,54.97
2019-01-31T02:44:59.981Z,57.60
2019-01-31T02:50:44.146Z,56.67
2019-01-31T02:56:31.954Z,55.97
2019-01-31T03:01:53.159Z,55.13
2019-01-31T03:07:51.391Z,57.03
2019-01-31T03:13:22.812Z,54.83
2019-01-31T03:18:42.291Z,56.17
2019-01-31T03:24:23.053Z,61.17
2019-01-31T03:30:03.089Z,59.13
2019-01-31T03:35:21.990Z,53.20
2019-01-31T03:41:06.628Z,56.87
2019-01-31T03:47:04.330Z,57.97
2019-01-31T03:52:47.568Z,60.57
2019-01-31T03:58:13.290Z,56.33
2019-01-31T04:03:57.090Z,57.33
2019-01-31T04:09:02.118Z,61.23
2019-01-31T04:14:07.086Z,66.17
2019-01-31T04:19:12.058Z,60.83
2019-01-31T04:24:17.050Z,63.83
2019-01-31T04:29:22.022Z,62.23
2019-01-31T04:34:27.005Z,63.03
2019-01-31T04:39:31.971Z,61.37
2019-01-31T04:44:36.954Z,64.00
2019-01-31T04:49:41.981Z,59.73
2019-01-31T04:54:46.964Z,60.47
2019-01-31T04:59:51.940Z,59.73
2019-01-31T05:04:56.971Z,55.67
2019-01-31T05:10:01.969Z,54.90
2019-01-31T05:15:08.611Z,54.40
2019-01-31T05:20:16.064Z,52.07
2019-01-31T05:25:21.051Z,49.70
2019-01-31T05:30:26.022Z,48.00
2019-01-31T05:35:31.007Z,47.67
2019-01-31T05:40:35.996Z,47.07
2019-01-31T05:45:40.999Z,48.77
2019-01-31T05:50:45.982Z,47.20
2019-01-31T05:55:51.029Z,46.53
2019-01-31T06:00:56.023Z,45.57
2019-01-31T06:06:01.000Z,44.37
2019-01-31T06:11:07.481Z,44.67
2019-01-31T06:16:12.627Z,49.47
2019-01-31T06:21:17.614Z,52.33
2019-01-31T06:26:23.619Z,57.63
2019-01-31T06:31:28.615Z,57.67
2019-01-31T06:36:33.591Z,59.83
2019-01-31T06:41:38.566Z,60.67
2019-01-31T06:46:43.608Z,57.83
2019-01-31T06:51:48.587Z,62.70
2019-01-31T06:56:53.566Z,65.60
2019-01-31T07:01:58.547Z,66.00
2019-01-31T07:07:03.562Z,63.43
2019-01-31T07:12:08.552Z,64.67
2019-01-31T07:17:13.524Z,71.40
2019-01-31T07:22:18.499Z,72.43
2019-01-31T07:27:23.467Z,71.00
2019-01-31T07:32:28.470Z,75.37
2019-01-31T07:37:33.426Z,77.70
2019-01-31T07:42:38.460Z,75.27
2019-01-31T07:47:43.431Z,77.77
2019-01-31T07:52:48.428Z,71.10
2019-01-31T07:57:53.390Z,82.17
2019-01-31T08:02:58.376Z,67.83
2019-01-31T08:08:03.415Z,63.90
2019-01-31T08:13:08.999Z,65.83
2019-01-31T08:18:13.993Z,55.23
2019-01-31T08:23:18.975Z,58.87
2019-01-31T08:28:23.965Z,56.27
2019-01-31T08:33:28.979Z,45.37
2019-01-31T08:38:36.691Z,54.67
2019-01-31T08:43:40.624Z,58.27
2019-01-31T08:48:45.625Z,62.10
2019-01-31T08:53:50.617Z,60.03
2019-01-31T08:58:55.596Z,56.37
2019-01-31T09:04:00.580Z,58.63
2019-01-31T09:09:10.248Z,55.87
2019-01-31T09:14:15.254Z,49.27
2019-01-31T09:19:20.245Z,48.43
2019-01-31T09:24:51.754Z,48.07
2019-01-31T09:30:25.318Z,44.57
2019-01-31T09:35:48.186Z,52.93
2019-01-31T09:41:28.251Z,50.27
2019-01-31T09:46:57.614Z,48.50
2019-01-31T09:52:54.378Z,55.37
2019-01-31T09:58:33.698Z,58.50
2019-01-31T10:04:19.391Z,58.50
2019-01-31T10:09:52.029Z,75.97
2019-01-31T10:15:28.267Z,70.23
2019-01-31T10:21:15.070Z,64.47
2019-01-31T10:26:30.365Z,57.67
2019-01-31T10:32:18.273Z,58.33
2019-01-31T10:38:04.227Z,65.17
2019-01-31T10:43:36.790Z,53.70
2019-01-31T10:49:04.517Z,50.00
2019-01-31T10:54:45.224Z,51.90
2019-01-31T11:00:22.469Z,52.50
2019-01-31T11:06:11.820Z,59.03
2019-01-31T11:12:10.274Z,59.70
2019-01-31T11:17:30.815Z,54.80
2019-01-31T11:23:07.198Z,53.47
2019-01-31T11:28:47.975Z,47.77
2019-01-31T11:34:19.329Z,54.03
2019-01-31T11:39:54.812Z,51.40
2019-01-31T11:45:52.760Z,48.40
2019-01-31T11:51:33.643Z,46.07
2019-01-31T11:57:11.632Z,47.73
2019-01-31T12:02:16.728Z,48.23
2019-01-31T12:07:21.748Z,49.17
2019-01-31T12:12:26.720Z,46.60
2019-01-31T12:17:31.713Z,47.13
2019-01-31T12:22:36.703Z,48.40
2019-01-31T12:27:41.699Z,52.07
2019-01-31T12:32:46.695Z,51.07
2019-01-31T12:37:51.666Z,50.17
2019-01-31T12:42:56.643Z,47.90
2019-01-31T12:48:01.664Z,46.17
2019-01-31T12:53:06.646Z,51.97
2019-01-31T12:58:11.636Z,52.67
2019-01-31T13:03:16.895Z,53.03
2019-01-31T13:08:21.915Z,55.10
2019-01-31T13:13:26.912Z,59.23
2019-01-31T13:18:31.908Z,61.73
2019-01-31T13:23:36.890Z,54.77
2019-01-31T13:28:41.888Z,50.57
2019-01-31T13:33:46.972Z,51.43
2019-01-31T13:38:52.081Z,56.93
2019-01-31T13:43:57.904Z,56.77
2019-01-31T13:49:03.778Z,60.30
2019-01-31T13:54:11.223Z,57.83
2019-01-31T13:59:16.127Z,55.00
2019-01-31T14:04:21.259Z,53.60
2019-01-31T14:09:26.248Z,55.63
2019-01-31T14:14:31.238Z,51.83
2019-01-31T14:19:36.283Z,56.93
2019-01-31T14:24:43.782Z,49.70
2019-01-31T14:29:48.057Z,55.57
2019-01-31T14:34:53.099Z,55.87
2019-01-31T14:39:58.393Z,52.60
2019-01-31T14:45:03.570Z,50.73
2019-01-31T14:50:12.351Z,43.43
2019-01-31T14:55:17.618Z,43.50
2019-01-31T15:00:25.008Z,40.77
2019-01-31T15:05:30.304Z,40.73
2019-01-31T15:10:35.714Z,39.93
2019-01-31T15:15:40.941Z,42.93
2019-01-31T15:20:46.837Z,45.73
2019-01-31T15:25:53.574Z,44.53
2019-01-31T15:30:58.534Z,49.50
2019-01-31T15:36:03.589Z,48.60
2019-01-31T15:41:08.780Z,52.30
2019-01-31T15:46:13.768Z,47.23
2019-01-31T15:51:18.762Z,45.03
2019-01-31T15:56:23.790Z,45.00
2019-01-31T16:01:30.627Z,50.70
2019-01-31T16:06:35.619Z,46.53
2019-01-31T16:11:40.628Z,47.57
2019-01-31T16:16:45.620Z,46.00
2019-01-31T16:21:50.613Z,47.47
2019-01-31T16:26:55.607Z,48.50
2019-01-31T16:32:00.608Z,48.73
2019-01-31T16:37:06.262Z,49.97
2019-01-31T16:42:11.256Z,48.53
2019-01-31T16:47:16.252Z,51.60
2019-01-31T16:52:21.250Z,50.80
2019-01-31T16:57:26.242Z,52.43
2019-01-31T17:02:31.236Z,54.90
2019-01-31T17:07:36.282Z,56.47
2019-01-31T17:12:41.286Z,58.93
2019-01-31T17:17:46.559Z,58.50
2019-01-31T17:22:51.559Z,55.43
2019-01-31T17:27:56.568Z,52.57
2019-01-31T17:33:01.565Z,50.20
2019-01-31T17:38:06.853Z,52.70
2019-01-31T17:43:13.116Z,53.20
2019-01-31T17:48:18.114Z,53.37
2019-01-31T17:53:23.089Z,50.30
2019-01-31T17:58:28.088Z,54.47
2019-01-31T18:03:33.098Z,55.07
2019-01-31T18:08:38.148Z,56.03
2019-01-31T18:13:43.146Z,52.80
2019-01-31T18:18:48.124Z,53.13
2019-01-31T18:23:53.099Z,49.33
2019-01-31T18:28:58.083Z,52.47
2019-01-31T18:34:03.081Z,53.87
2019-01-31T18:39:09.775Z,52.40
2019-01-31T18:44:14.774Z,50.07
2019-01-31T18:49:19.776Z,49.37
2019-01-31T18:54:24.761Z,46.60
2019-01-31T18:59:29.751Z,46.67
2019-01-31T19:04:34.752Z,48.73
2019-01-31T19:09:39.819Z,45.80
2019-01-31T19:14:44.895Z,48.63
2019-01-31T19:19:49.904Z,48.47
2019-01-31T19:24:54.975Z,46.23
2019-01-31T19:30:00.172Z,44.17
2019-01-31T19:35:06.347Z,42.17
2019-01-31T19:40:14.064Z,43.43
